sensor_id;sensor_type;location;lat;lon;timestamp;pressure;altitude;pressure_sealevel;temperature;humidity
48622;BME280;34421;48.944;9.460;2023-05-20T00:01:30;98625.28;;;12.72;70.95
48622;BME280;34421;48.944;9.460;2023-05-20T00:03:55;98630.16;;;12.75;70.84
48622;BME280;34421;48.944;9.460;2023-05-20T00:06:21;98630.94;;;12.83;70.48
48622;BME280;34421;48.944;9.460;2023-05-20T00:08:47;98629.44;;;12.87;71.03
48622;BME280;34421;48.944;9.460;2023-05-20T00:11:12;98625.53;;;12.89;71.01
48622;BME280;34421;48.944;9.460;2023-05-20T00:13:38;98621.97;;;12.95;70.54
48622;BME280;34421;48.944;9.460;2023-05-20T00:16:05;98624.63;;;12.95;70.51
48622;BME280;34421;48.944;9.460;2023-05-20T00:18:30;98624.44;;;12.97;70.82
48622;BME280;34421;48.944;9.460;2023-05-20T00:20:57;98606.91;;;13.01;70.86
48622;BME280;34421;48.944;9.460;2023-05-20T00:23:22;98610.53;;;13.07;71.18
48622;BME280;34421;48.944;9.460;2023-05-20T00:25:48;98613.81;;;13.09;70.86
48622;BME280;34421;48.944;9.460;2023-05-20T00:28:13;98599.16;;;13.11;71.34
48622;BME280;34421;48.944;9.460;2023-05-20T00:30:39;98603.84;;;13.16;70.63
48622;BME280;34421;48.944;9.460;2023-05-20T00:33:05;98605.63;;;13.22;70.85
48622;BME280;34421;48.944;9.460;2023-05-20T00:35:31;98605.81;;;13.27;70.31
48622;BME280;34421;48.944;9.460;2023-05-20T00:37:56;98609.66;;;13.31;70.09
48622;BME280;34421;48.944;9.460;2023-05-20T00:40:22;98605.72;;;13.34;69.84
48622;BME280;34421;48.944;9.460;2023-05-20T00:42:49;98598.88;;;13.38;69.67
48622;BME280;34421;48.944;9.460;2023-05-20T00:45:14;98604.63;;;13.41;69.80
48622;BME280;34421;48.944;9.460;2023-05-20T00:47:41;98603.09;;;13.45;69.97
48622;BME280;34421;48.944;9.460;2023-05-20T00:50:08;98598.13;;;13.49;69.71
48622;BME280;34421;48.944;9.460;2023-05-20T00:52:34;98606.50;;;13.53;69.91
48622;BME280;34421;48.944;9.460;2023-05-20T00:55:01;98599.53;;;13.52;69.66
48622;BME280;34421;48.944;9.460;2023-05-20T00:57:26;98600.13;;;13.54;69.77
48622;BME280;34421;48.944;9.460;2023-05-20T00:59:52;98597.13;;;13.62;69.17
48622;BME280;34421;48.944;9.460;2023-05-20T01:02:18;98601.56;;;13.68;69.20
48622;BME280;34421;48.944;9.460;2023-05-20T01:04:43;98600.28;;;13.71;69.49
48622;BME280;34421;48.944;9.460;2023-05-20T01:07:12;98594.28;;;13.75;69.55
48622;BME280;34421;48.944;9.460;2023-05-20T01:09:39;98594.63;;;13.79;68.81
48622;BME280;34421;48.944;9.460;2023-05-20T01:12:25;98592.56;;;13.81;68.28
48622;BME280;34421;48.944;9.460;2023-05-20T01:14:55;98590.69;;;13.81;68.20
48622;BME280;34421;48.944;9.460;2023-05-20T01:17:26;98591.75;;;13.80;67.97
48622;BME280;34421;48.944;9.460;2023-05-20T01:19:57;98589.88;;;13.81;67.97
48622;BME280;34421;48.944;9.460;2023-05-20T01:22:27;98582.66;;;13.81;67.54
48622;BME280;34421;48.944;9.460;2023-05-20T01:24:53;98579.97;;;13.81;67.98
48622;BME280;34421;48.944;9.460;2023-05-20T01:27:19;98577.31;;;13.81;67.61
48622;BME280;34421;48.944;9.460;2023-05-20T01:29:47;98578.34;;;13.80;67.93
48622;BME280;34421;48.944;9.460;2023-05-20T01:32:21;98572.16;;;13.80;67.59
48622;BME280;34421;48.944;9.460;2023-05-20T01:34:49;98573.81;;;13.81;66.90
48622;BME280;34421;48.944;9.460;2023-05-20T01:37:16;98573.00;;;13.80;67.55
48622;BME280;34421;48.944;9.460;2023-05-20T01:39:41;98566.00;;;13.79;67.18
48622;BME280;34421;48.944;9.460;2023-05-20T01:42:10;98569.50;;;13.80;67.25
48622;BME280;34421;48.944;9.460;2023-05-20T01:44:36;98573.00;;;13.80;67.66
48622;BME280;34421;48.944;9.460;2023-05-20T01:47:01;98575.91;;;13.79;67.21
48622;BME280;34421;48.944;9.460;2023-05-20T01:49:27;98577.97;;;13.77;67.98
48622;BME280;34421;48.944;9.460;2023-05-20T01:51:53;98570.19;;;13.75;68.00
48622;BME280;34421;48.944;9.460;2023-05-20T01:54:18;98566.91;;;13.73;67.66
48622;BME280;34421;48.944;9.460;2023-05-20T01:56:45;98570.06;;;13.70;68.48
48622;BME280;34421;48.944;9.460;2023-05-20T01:59:10;98574.44;;;13.64;68.12
48622;BME280;34421;48.944;9.460;2023-05-20T02:01:36;98578.38;;;13.62;68.07
48622;BME280;34421;48.944;9.460;2023-05-20T02:04:01;98575.16;;;13.60;67.97
48622;BME280;34421;48.944;9.460;2023-05-20T02:06:27;98578.63;;;13.60;68.51
48622;BME280;34421;48.944;9.460;2023-05-20T02:08:52;98577.22;;;13.58;68.06
48622;BME280;34421;48.944;9.460;2023-05-20T02:11:17;98575.59;;;13.57;68.36
48622;BME280;34421;48.944;9.460;2023-05-20T02:13:43;98579.53;;;13.54;68.06
48622;BME280;34421;48.944;9.460;2023-05-20T02:16:08;98575.47;;;13.52;68.56
48622;BME280;34421;48.944;9.460;2023-05-20T02:18:33;98567.88;;;13.49;68.43
48622;BME280;34421;48.944;9.460;2023-05-20T02:21:03;98566.25;;;13.48;68.08
48622;BME280;34421;48.944;9.460;2023-05-20T02:23:29;98568.34;;;13.45;68.22
48622;BME280;34421;48.944;9.460;2023-05-20T02:25:54;98559.16;;;13.41;68.82
48622;BME280;34421;48.944;9.460;2023-05-20T02:28:20;98554.22;;;13.38;68.77
48622;BME280;34421;48.944;9.460;2023-05-20T02:30:45;98560.03;;;13.35;69.12
48622;BME280;34421;48.944;9.460;2023-05-20T02:33:11;98562.34;;;13.32;69.50
48622;BME280;34421;48.944;9.460;2023-05-20T02:35:37;98566.28;;;13.29;69.49
48622;BME280;34421;48.944;9.460;2023-05-20T02:38:03;98564.19;;;13.31;69.30
48622;BME280;34421;48.944;9.460;2023-05-20T02:40:28;98574.91;;;13.31;69.47
48622;BME280;34421;48.944;9.460;2023-05-20T02:42:53;98570.97;;;13.34;69.13
48622;BME280;34421;48.944;9.460;2023-05-20T02:45:19;98555.88;;;13.39;69.81
48622;BME280;34421;48.944;9.460;2023-05-20T02:47:44;98564.25;;;13.43;68.94
48622;BME280;34421;48.944;9.460;2023-05-20T02:50:09;98564.63;;;13.47;69.27
48622;BME280;34421;48.944;9.460;2023-05-20T02:52:35;98560.91;;;13.48;69.19
48622;BME280;34421;48.944;9.460;2023-05-20T02:55:00;98558.25;;;13.48;68.92
48622;BME280;34421;48.944;9.460;2023-05-20T02:57:26;98564.63;;;13.47;69.12
48622;BME280;34421;48.944;9.460;2023-05-20T02:59:52;98561.38;;;13.44;69.52
48622;BME280;34421;48.944;9.460;2023-05-20T03:02:18;98557.66;;;13.45;68.97
48622;BME280;34421;48.944;9.460;2023-05-20T03:04:43;98564.03;;;13.44;69.35
48622;BME280;34421;48.944;9.460;2023-05-20T03:07:10;98566.72;;;13.44;69.55
48622;BME280;34421;48.944;9.460;2023-05-20T03:09:36;98557.84;;;13.44;69.75
48622;BME280;34421;48.944;9.460;2023-05-20T03:12:02;98570.22;;;13.45;69.12
48622;BME280;34421;48.944;9.460;2023-05-20T03:14:27;98568.94;;;13.48;69.23
48622;BME280;34421;48.944;9.460;2023-05-20T03:16:53;98569.50;;;13.50;69.09
48622;BME280;34421;48.944;9.460;2023-05-20T03:19:21;98575.91;;;13.49;69.36
48622;BME280;34421;48.944;9.460;2023-05-20T03:21:47;98568.69;;;13.49;69.75
48622;BME280;34421;48.944;9.460;2023-05-20T03:24:12;98566.63;;;13.51;69.54
48622;BME280;34421;48.944;9.460;2023-05-20T03:26:37;98562.69;;;13.54;69.22
48622;BME280;34421;48.944;9.460;2023-05-20T03:29:07;98560.56;;;13.56;69.24
48622;BME280;34421;48.944;9.460;2023-05-20T03:31:33;98551.88;;;13.60;69.09
48622;BME280;34421;48.944;9.460;2023-05-20T03:33:58;98554.91;;;13.64;69.22
48622;BME280;34421;48.944;9.460;2023-05-20T03:36:23;98558.41;;;13.64;69.40
48622;BME280;34421;48.944;9.460;2023-05-20T03:38:49;98559.00;;;13.66;69.66
48622;BME280;34421;48.944;9.460;2023-05-20T03:41:14;98557.47;;;13.71;69.23
48622;BME280;34421;48.944;9.460;2023-05-20T03:43:39;98551.47;;;13.75;69.29
48622;BME280;34421;48.944;9.460;2023-05-20T03:46:05;98557.41;;;13.77;68.69
48622;BME280;34421;48.944;9.460;2023-05-20T03:48:30;98556.34;;;13.78;69.00
48622;BME280;34421;48.944;9.460;2023-05-20T03:50:55;98559.03;;;13.78;69.03
48622;BME280;34421;48.944;9.460;2023-05-20T03:53:21;98560.19;;;13.82;68.71
48622;BME280;34421;48.944;9.460;2023-05-20T03:55:46;98571.50;;;13.84;68.76
48622;BME280;34421;48.944;9.460;2023-05-20T03:58:12;98569.41;;;13.86;68.68
48622;BME280;34421;48.944;9.460;2023-05-20T04:00:38;98576.75;;;13.91;68.28
48622;BME280;34421;48.944;9.460;2023-05-20T04:03:04;98571.53;;;13.96;68.21
48622;BME280;34421;48.944;9.460;2023-05-20T04:05:29;98577.13;;;14.06;68.19
48622;BME280;34421;48.944;9.460;2023-05-20T04:07:55;98569.34;;;14.17;68.24
48622;BME280;34421;48.944;9.460;2023-05-20T04:10:21;98571.09;;;14.23;68.00
48622;BME280;34421;48.944;9.460;2023-05-20T04:12:47;98559.00;;;14.32;68.10
48622;BME280;34421;48.944;9.460;2023-05-20T04:15:13;98569.38;;;14.40;67.58
48622;BME280;34421;48.944;9.460;2023-05-20T04:17:38;98568.31;;;14.41;67.21
48622;BME280;34421;48.944;9.460;2023-05-20T04:20:05;98562.03;;;14.47;67.39
48622;BME280;34421;48.944;9.460;2023-05-20T04:22:32;98557.63;;;14.53;66.92
48622;BME280;34421;48.944;9.460;2023-05-20T04:24:57;98563.59;;;14.55;66.81
48622;BME280;34421;48.944;9.460;2023-05-20T04:27:23;98572.56;;;14.61;66.95
48622;BME280;34421;48.944;9.460;2023-05-20T04:29:50;98569.97;;;14.66;66.64
48622;BME280;34421;48.944;9.460;2023-05-20T04:32:17;98579.53;;;14.73;66.41
48622;BME280;34421;48.944;9.460;2023-05-20T04:34:43;98570.53;;;14.79;65.83
48622;BME280;34421;48.944;9.460;2023-05-20T04:37:09;98558.53;;;14.94;65.86
48622;BME280;34421;48.944;9.460;2023-05-20T04:39:35;98553.22;;;15.11;65.16
48622;BME280;34421;48.944;9.460;2023-05-20T04:42:00;98556.22;;;15.26;65.01
48622;BME280;34421;48.944;9.460;2023-05-20T04:44:27;98546.59;;;15.42;64.47
48622;BME280;34421;48.944;9.460;2023-05-20T04:46:52;98546.84;;;15.69;63.80
48622;BME280;34421;48.944;9.460;2023-05-20T04:49:17;98547.53;;;15.93;63.47
48622;BME280;34421;48.944;9.460;2023-05-20T04:51:43;98552.75;;;16.16;63.43
48622;BME280;34421;48.944;9.460;2023-05-20T04:54:09;98551.91;;;16.33;61.81
48622;BME280;34421;48.944;9.460;2023-05-20T04:56:34;98553.16;;;16.42;62.36
48622;BME280;34421;48.944;9.460;2023-05-20T04:59:00;98559.25;;;16.54;61.67
48622;BME280;34421;48.944;9.460;2023-05-20T05:01:26;98550.69;;;16.57;60.90
48622;BME280;34421;48.944;9.460;2023-05-20T05:03:51;98551.88;;;16.67;61.23
48622;BME280;34421;48.944;9.460;2023-05-20T05:06:16;98563.44;;;16.84;60.00
48622;BME280;34421;48.944;9.460;2023-05-20T05:08:42;98549.00;;;16.90;60.18
48622;BME280;34421;48.944;9.460;2023-05-20T05:11:07;98562.38;;;16.85;59.63
48622;BME280;34421;48.944;9.460;2023-05-20T05:13:33;98554.66;;;16.72;60.17
48622;BME280;34421;48.944;9.460;2023-05-20T05:15:59;98550.38;;;16.54;60.79
48622;BME280;34421;48.944;9.460;2023-05-20T05:18:24;98550.50;;;16.47;60.71
48622;BME280;34421;48.944;9.460;2023-05-20T05:20:57;98540.28;;;16.27;60.95
48622;BME280;34421;48.944;9.460;2023-05-20T05:23:23;98537.59;;;16.10;61.45
48622;BME280;34421;48.944;9.460;2023-05-20T05:25:51;98542.66;;;16.07;61.93
48622;BME280;34421;48.944;9.460;2023-05-20T05:28:17;98553.09;;;16.03;61.78
48622;BME280;34421;48.944;9.460;2023-05-20T05:30:42;98542.47;;;15.97;62.21
48622;BME280;34421;48.944;9.460;2023-05-20T05:33:07;98542.47;;;15.97;62.35
48622;BME280;34421;48.944;9.460;2023-05-20T05:35:33;98542.00;;;16.00;62.65
48622;BME280;34421;48.944;9.460;2023-05-20T05:37:58;98538.75;;;15.98;62.32
48622;BME280;34421;48.944;9.460;2023-05-20T05:40:23;98538.41;;;15.94;62.82
48622;BME280;34421;48.944;9.460;2023-05-20T05:42:49;98528.34;;;16.01;62.72
48622;BME280;34421;48.944;9.460;2023-05-20T05:45:14;98528.91;;;16.03;63.08
48622;BME280;34421;48.944;9.460;2023-05-20T05:47:39;98527.69;;;16.11;62.60
48622;BME280;34421;48.944;9.460;2023-05-20T05:50:05;98519.94;;;16.14;62.71
48622;BME280;34421;48.944;9.460;2023-05-20T05:52:30;98525.06;;;16.16;62.85
48622;BME280;34421;48.944;9.460;2023-05-20T05:54:56;98524.28;;;16.15;62.69
48622;BME280;34421;48.944;9.460;2023-05-20T05:57:21;98527.44;;;16.12;62.65
48622;BME280;34421;48.944;9.460;2023-05-20T05:59:46;98529.56;;;16.10;62.54
48622;BME280;34421;48.944;9.460;2023-05-20T06:02:12;98525.88;;;16.16;62.59
48622;BME280;34421;48.944;9.460;2023-05-20T06:04:38;98520.84;;;16.20;62.96
48622;BME280;34421;48.944;9.460;2023-05-20T06:07:04;98527.34;;;16.24;62.07
48622;BME280;34421;48.944;9.460;2023-05-20T06:09:29;98522.31;;;16.28;62.61
48622;BME280;34421;48.944;9.460;2023-05-20T06:11:55;98519.44;;;16.34;62.36
48622;BME280;34421;48.944;9.460;2023-05-20T06:14:20;98520.91;;;16.42;62.04
48622;BME280;34421;48.944;9.460;2023-05-20T06:16:46;98517.34;;;16.58;61.37
48622;BME280;34421;48.944;9.460;2023-05-20T06:19:11;98516.84;;;16.78;61.02
48622;BME280;34421;48.944;9.460;2023-05-20T06:21:36;98515.16;;;16.94;60.96
48622;BME280;34421;48.944;9.460;2023-05-20T06:24:03;98512.72;;;17.15;60.28
48622;BME280;34421;48.944;9.460;2023-05-20T06:26:28;98519.72;;;17.43;59.70
48622;BME280;34421;48.944;9.460;2023-05-20T06:28:53;98507.75;;;18.15;58.23
48622;BME280;34421;48.944;9.460;2023-05-20T06:31:19;98501.41;;;19.77;54.65
48622;BME280;34421;48.944;9.460;2023-05-20T06:33:44;98493.91;;;23.20;47.10
48622;BME280;34421;48.944;9.460;2023-05-20T06:36:09;98493.16;;;26.59;40.37
48622;BME280;34421;48.944;9.460;2023-05-20T06:38:35;98475.69;;;29.41;35.86
48622;BME280;34421;48.944;9.460;2023-05-20T06:41:01;98478.53;;;30.19;33.37
48622;BME280;34421;48.944;9.460;2023-05-20T06:43:26;98472.72;;;29.88;33.21
48622;BME280;34421;48.944;9.460;2023-05-20T06:45:52;98478.34;;;28.99;34.25
48622;BME280;34421;48.944;9.460;2023-05-20T06:48:18;98479.72;;;27.72;35.90
48622;BME280;34421;48.944;9.460;2023-05-20T06:50:44;98477.97;;;26.85;36.84
48622;BME280;34421;48.944;9.460;2023-05-20T06:53:09;98480.28;;;26.29;37.27
48622;BME280;34421;48.944;9.460;2023-05-20T06:55:38;98484.63;;;25.62;38.30
48622;BME280;34421;48.944;9.460;2023-05-20T06:58:03;98497.38;;;25.03;38.80
48622;BME280;34421;48.944;9.460;2023-05-20T07:00:28;98483.88;;;24.84;39.36
48622;BME280;34421;48.944;9.460;2023-05-20T07:02:54;98486.09;;;24.82;39.54
48622;BME280;34421;48.944;9.460;2023-05-20T07:05:19;98485.22;;;26.49;37.18
48622;BME280;34421;48.944;9.460;2023-05-20T07:07:44;98479.59;;;25.92;38.11
48622;BME280;34421;48.944;9.460;2023-05-20T07:10:10;98478.81;;;25.19;38.55
48622;BME280;34421;48.944;9.460;2023-05-20T07:12:35;98482.41;;;24.31;40.07
48622;BME280;34421;48.944;9.460;2023-05-20T07:15:01;98477.53;;;24.01;41.05
48622;BME280;34421;48.944;9.460;2023-05-20T07:17:26;98476.97;;;24.31;40.01
48622;BME280;34421;48.944;9.460;2023-05-20T07:19:53;98474.94;;;24.23;40.29
48622;BME280;34421;48.944;9.460;2023-05-20T07:22:19;98473.59;;;24.07;40.95
48622;BME280;34421;48.944;9.460;2023-05-20T07:24:44;98466.19;;;23.94;40.62
48622;BME280;34421;48.944;9.460;2023-05-20T07:27:10;98454.16;;;24.14;40.11
48622;BME280;34421;48.944;9.460;2023-05-20T07:29:35;98455.84;;;25.34;38.23
48622;BME280;34421;48.944;9.460;2023-05-20T07:32:02;98460.13;;;25.12;38.30
48622;BME280;34421;48.944;9.460;2023-05-20T07:34:27;98458.69;;;24.78;38.89
48622;BME280;34421;48.944;9.460;2023-05-20T07:36:52;98461.06;;;26.03;36.80
48622;BME280;34421;48.944;9.460;2023-05-20T07:39:18;98438.09;;;29.62;31.85
48622;BME280;34421;48.944;9.460;2023-05-20T07:41:43;98444.81;;;32.77;28.03
48622;BME280;34421;48.944;9.460;2023-05-20T07:44:09;98435.63;;;33.05;26.71
48622;BME280;34421;48.944;9.460;2023-05-20T07:46:35;98436.41;;;31.26;28.41
48622;BME280;34421;48.944;9.460;2023-05-20T07:49:02;98444.66;;;32.70;26.98
48622;BME280;34421;48.944;9.460;2023-05-20T07:51:28;98428.19;;;31.82;28.17
48622;BME280;34421;48.944;9.460;2023-05-20T07:53:53;98440.91;;;32.31;27.96
48622;BME280;34421;48.944;9.460;2023-05-20T07:56:19;98437.16;;;30.98;28.93
48622;BME280;34421;48.944;9.460;2023-05-20T07:58:51;98438.09;;;29.62;29.96
48622;BME280;34421;48.944;9.460;2023-05-20T08:01:17;98427.28;;;29.66;30.23
48622;BME280;34421;48.944;9.460;2023-05-20T08:03:43;98433.16;;;32.20;26.65
48622;BME280;34421;48.944;9.460;2023-05-20T08:06:08;98422.41;;;31.99;26.88
48622;BME280;34421;48.944;9.460;2023-05-20T08:08:33;98429.03;;;32.94;25.78
48622;BME280;34421;48.944;9.460;2023-05-20T08:11:00;98418.63;;;32.52;25.52
48622;BME280;34421;48.944;9.460;2023-05-20T08:13:26;98399.78;;;32.22;27.19
48622;BME280;34421;48.944;9.460;2023-05-20T08:15:54;98404.44;;;33.59;25.71
48622;BME280;34421;48.944;9.460;2023-05-20T08:18:21;98416.53;;;36.65;21.70
48622;BME280;34421;48.944;9.460;2023-05-20T08:20:46;98416.47;;;37.27;21.21
48622;BME280;34421;48.944;9.460;2023-05-20T08:23:11;98406.84;;;38.37;20.40
48622;BME280;34421;48.944;9.460;2023-05-20T08:25:37;98408.09;;;39.74;18.95
48622;BME280;34421;48.944;9.460;2023-05-20T08:28:03;98401.56;;;39.22;18.97
48622;BME280;34421;48.944;9.460;2023-05-20T08:30:30;98406.44;;;40.43;17.82
48622;BME280;34421;48.944;9.460;2023-05-20T08:32:55;98412.63;;;41.37;17.09
48622;BME280;34421;48.944;9.460;2023-05-20T08:35:22;98407.44;;;40.60;17.60
48622;BME280;34421;48.944;9.460;2023-05-20T08:37:47;98405.56;;;41.29;16.90
48622;BME280;34421;48.944;9.460;2023-05-20T08:40:13;98407.56;;;42.41;16.11
48622;BME280;34421;48.944;9.460;2023-05-20T08:42:42;98394.84;;;43.03;15.74
48622;BME280;34421;48.944;9.460;2023-05-20T08:45:11;98408.94;;;39.64;18.25
48622;BME280;34421;48.944;9.460;2023-05-20T08:47:41;98399.38;;;39.61;18.06
48622;BME280;34421;48.944;9.460;2023-05-20T08:50:08;98411.53;;;37.86;19.20
48622;BME280;34421;48.944;9.460;2023-05-20T08:52:34;98413.91;;;37.70;19.80
48622;BME280;34421;48.944;9.460;2023-05-20T08:55:01;98413.28;;;36.11;21.43
48622;BME280;34421;48.944;9.460;2023-05-20T08:57:27;98409.88;;;34.93;22.23
48622;BME280;34421;48.944;9.460;2023-05-20T08:59:54;98404.00;;;33.76;23.46
48622;BME280;34421;48.944;9.460;2023-05-20T09:02:21;98409.63;;;32.23;24.80
48622;BME280;34421;48.944;9.460;2023-05-20T09:04:47;98404.47;;;34.24;23.10
48622;BME280;34421;48.944;9.460;2023-05-20T09:07:12;98392.50;;;37.89;20.19
48622;BME280;34421;48.944;9.460;2023-05-20T09:09:38;98384.19;;;39.80;18.97
48622;BME280;34421;48.944;9.460;2023-05-20T09:12:03;98381.75;;;39.02;19.06
48622;BME280;34421;48.944;9.460;2023-05-20T09:14:29;98387.97;;;36.64;20.97
48622;BME280;34421;48.944;9.460;2023-05-20T09:16:55;98379.66;;;37.30;20.29
48622;BME280;34421;48.944;9.460;2023-05-20T09:19:23;98373.53;;;40.24;17.85
48622;BME280;34421;48.944;9.460;2023-05-20T09:21:53;98368.50;;;42.57;16.51
48622;BME280;34421;48.944;9.460;2023-05-20T09:24:22;98368.97;;;42.95;16.02
48622;BME280;34421;48.944;9.460;2023-05-20T09:26:48;98379.06;;;40.31;17.54
48622;BME280;34421;48.944;9.460;2023-05-20T09:29:14;98381.53;;;40.18;17.44
48622;BME280;34421;48.944;9.460;2023-05-20T09:31:39;98380.03;;;42.12;16.20
48622;BME280;34421;48.944;9.460;2023-05-20T09:34:05;98379.91;;;41.96;15.72
48622;BME280;34421;48.944;9.460;2023-05-20T09:36:33;98378.38;;;41.33;16.82
48622;BME280;34421;48.944;9.460;2023-05-20T09:39:00;98373.91;;;40.71;16.46
48622;BME280;34421;48.944;9.460;2023-05-20T09:41:44;98377.25;;;39.26;17.90
48622;BME280;34421;48.944;9.460;2023-05-20T09:44:13;98374.38;;;40.62;17.65
48622;BME280;34421;48.944;9.460;2023-05-20T09:46:40;98367.41;;;42.94;15.13
48622;BME280;34421;48.944;9.460;2023-05-20T09:49:07;98374.25;;;43.13;14.81
48622;BME280;34421;48.944;9.460;2023-05-20T09:51:32;98363.19;;;42.43;15.66
48622;BME280;34421;48.944;9.460;2023-05-20T09:53:59;98367.38;;;43.34;15.04
48622;BME280;34421;48.944;9.460;2023-05-20T09:56:28;98364.34;;;44.92;13.97
48622;BME280;34421;48.944;9.460;2023-05-20T09:58:56;98366.16;;;45.28;13.05
48622;BME280;34421;48.944;9.460;2023-05-20T10:01:22;98357.94;;;45.34;13.32
48622;BME280;34421;48.944;9.460;2023-05-20T10:03:48;98364.34;;;43.29;14.59
48622;BME280;34421;48.944;9.460;2023-05-20T10:09:10;98357.97;;;40.68;16.47
48622;BME280;34421;48.944;9.460;2023-05-20T10:14:38;98342.81;;;37.48;18.99
48622;BME280;34421;48.944;9.460;2023-05-20T10:17:12;98343.63;;;39.69;17.37
48622;BME280;34421;48.944;9.460;2023-05-20T10:19:40;98333.78;;;41.26;16.48
48622;BME280;34421;48.944;9.460;2023-05-20T10:22:07;98340.00;;;40.31;17.05
48622;BME280;34421;48.944;9.460;2023-05-20T10:24:43;98350.78;;;37.67;18.98
48622;BME280;34421;48.944;9.460;2023-05-20T10:27:13;98348.69;;;36.03;20.79
48622;BME280;34421;48.944;9.460;2023-05-20T10:29:55;98341.41;;;36.99;19.66
48622;BME280;34421;48.944;9.460;2023-05-20T10:34:49;98331.22;;;36.51;20.36
48622;BME280;34421;48.944;9.460;2023-05-20T10:37:41;98330.16;;;37.90;19.30
48622;BME280;34421;48.944;9.460;2023-05-20T10:40:11;98325.53;;;39.32;18.45
48622;BME280;34421;48.944;9.460;2023-05-20T10:42:37;98321.84;;;40.08;17.49
48622;BME280;34421;48.944;9.460;2023-05-20T10:45:03;98320.38;;;39.93;17.32
48622;BME280;34421;48.944;9.460;2023-05-20T10:47:29;98316.22;;;38.79;18.46
48622;BME280;34421;48.944;9.460;2023-05-20T10:49:55;98316.66;;;37.52;19.14
48622;BME280;34421;48.944;9.460;2023-05-20T10:52:23;98323.25;;;37.12;19.58
48622;BME280;34421;48.944;9.460;2023-05-20T10:57:17;98311.41;;;37.26;19.45
48622;BME280;34421;48.944;9.460;2023-05-20T10:59:43;98311.78;;;37.17;19.73
48622;BME280;34421;48.944;9.460;2023-05-20T11:02:09;98311.75;;;36.40;20.30
48622;BME280;34421;48.944;9.460;2023-05-20T11:04:37;98308.63;;;35.94;21.77
48622;BME280;34421;48.944;9.460;2023-05-20T11:07:03;98301.88;;;37.23;19.88
48622;BME280;34421;48.944;9.460;2023-05-20T11:09:28;98290.91;;;38.09;19.38
48622;BME280;34421;48.944;9.460;2023-05-20T11:11:56;98296.28;;;37.05;20.24
48622;BME280;34421;48.944;9.460;2023-05-20T11:14:21;98304.44;;;36.14;21.12
48622;BME280;34421;48.944;9.460;2023-05-20T11:16:50;98291.88;;;35.76;21.26
48622;BME280;34421;48.944;9.460;2023-05-20T11:19:16;98283.47;;;34.98;22.05
48622;BME280;34421;48.944;9.460;2023-05-20T11:21:43;98288.50;;;34.32;22.38
48622;BME280;34421;48.944;9.460;2023-05-20T11:24:09;98293.41;;;33.92;22.55
48622;BME280;34421;48.944;9.460;2023-05-20T11:26:35;98288.38;;;32.55;23.61
48622;BME280;34421;48.944;9.460;2023-05-20T11:29:01;98296.16;;;31.86;25.83
48622;BME280;34421;48.944;9.460;2023-05-20T11:31:26;98292.22;;;31.39;26.07
48622;BME280;34421;48.944;9.460;2023-05-20T11:33:54;98284.91;;;31.31;25.89
48622;BME280;34421;48.944;9.460;2023-05-20T11:36:21;98273.88;;;31.15;26.46
48622;BME280;34421;48.944;9.460;2023-05-20T11:38:46;98280.00;;;30.96;27.06
48622;BME280;34421;48.944;9.460;2023-05-20T11:41:12;98275.38;;;30.84;26.95
48622;BME280;34421;48.944;9.460;2023-05-20T11:43:37;98272.75;;;30.88;26.84
48622;BME280;34421;48.944;9.460;2023-05-20T11:46:03;98274.69;;;30.75;27.27
48622;BME280;34421;48.944;9.460;2023-05-20T11:48:29;98272.53;;;30.81;27.68
48622;BME280;34421;48.944;9.460;2023-05-20T11:50:55;98267.59;;;30.74;27.58
48622;BME280;34421;48.944;9.460;2023-05-20T11:53:21;98265.09;;;30.69;27.57
48622;BME280;34421;48.944;9.460;2023-05-20T11:58:21;98272.53;;;31.09;27.03
48622;BME280;34421;48.944;9.460;2023-05-20T12:00:47;98255.72;;;30.98;27.47
48622;BME280;34421;48.944;9.460;2023-05-20T12:03:12;98256.69;;;30.90;27.48
48622;BME280;34421;48.944;9.460;2023-05-20T12:05:38;98257.84;;;30.77;27.61
48622;BME280;34421;48.944;9.460;2023-05-20T12:08:04;98256.59;;;30.46;27.38
48622;BME280;34421;48.944;9.460;2023-05-20T12:10:29;98254.41;;;30.39;27.77
48622;BME280;34421;48.944;9.460;2023-05-20T12:12:55;98250.63;;;30.44;28.00
48622;BME280;34421;48.944;9.460;2023-05-20T12:15:20;98243.97;;;30.45;27.81
48622;BME280;34421;48.944;9.460;2023-05-20T12:17:47;98243.69;;;30.62;28.06
48622;BME280;34421;48.944;9.460;2023-05-20T12:20:14;98229.72;;;30.68;27.33
48622;BME280;34421;48.944;9.460;2023-05-20T12:22:41;98237.47;;;30.50;28.54
48622;BME280;34421;48.944;9.460;2023-05-20T12:25:07;98248.34;;;30.09;28.63
48622;BME280;34421;48.944;9.460;2023-05-20T12:27:32;98240.47;;;30.08;28.84
48622;BME280;34421;48.944;9.460;2023-05-20T12:29:58;98224.81;;;30.20;28.54
48622;BME280;34421;48.944;9.460;2023-05-20T12:32:23;98230.50;;;30.15;28.72
48622;BME280;34421;48.944;9.460;2023-05-20T12:34:48;98227.84;;;30.19;28.72
48622;BME280;34421;48.944;9.460;2023-05-20T12:37:14;98227.09;;;30.06;28.37
48622;BME280;34421;48.944;9.460;2023-05-20T12:39:39;98230.06;;;29.77;28.79
48622;BME280;34421;48.944;9.460;2023-05-20T12:42:05;98229.97;;;29.73;29.15
48622;BME280;34421;48.944;9.460;2023-05-20T12:44:30;98230.75;;;29.98;29.17
48622;BME280;34421;48.944;9.460;2023-05-20T12:46:55;98222.09;;;29.84;29.73
48622;BME280;34421;48.944;9.460;2023-05-20T12:49:21;98232.81;;;29.89;29.88
48622;BME280;34421;48.944;9.460;2023-05-20T12:51:46;98225.38;;;29.65;29.44
48622;BME280;34421;48.944;9.460;2023-05-20T12:54:11;98227.50;;;29.35;29.82
48622;BME280;34421;48.944;9.460;2023-05-20T12:56:36;98226.75;;;29.13;29.96
48622;BME280;34421;48.944;9.460;2023-05-20T12:59:02;98215.44;;;29.15;29.74
48622;BME280;34421;48.944;9.460;2023-05-20T13:01:27;98207.94;;;29.24;29.72
48622;BME280;34421;48.944;9.460;2023-05-20T13:03:53;98209.53;;;29.13;30.16
48622;BME280;34421;48.944;9.460;2023-05-20T13:06:19;98202.34;;;29.33;30.13
48622;BME280;34421;48.944;9.460;2023-05-20T13:08:44;98211.16;;;29.38;30.24